createdAt,value
2023-01-04T00:00:07.858Z,56.30
2023-01-04T00:02:35.143Z,56.33
2023-01-04T00:05:02.297Z,56.22
2023-01-04T00:07:32.958Z,54.72
2023-01-04T00:09:59.978Z,51.88
2023-01-04T00:12:26.957Z,55.17
2023-01-04T00:14:54.006Z,51.35
2023-01-04T00:17:21.060Z,48.08
2023-01-04T00:19:48.113Z,46.30
2023-01-04T00:22:15.191Z,48.92
2023-01-04T00:24:42.372Z,48.60
2023-01-04T00:27:12.524Z,47.30
2023-01-04T00:29:39.629Z,47.42
2023-01-04T00:32:06.818Z,42.80
2023-01-04T00:34:33.897Z,48.80
2023-01-04T00:37:00.966Z,54.85
2023-01-04T00:39:29.493Z,52.05
2023-01-04T00:42:05.374Z,51.13
2023-01-04T00:44:35.606Z,52.72
2023-01-04T00:47:04.178Z,53.35
2023-01-04T00:49:32.138Z,51.00
2023-01-04T00:52:02.908Z,47.25
2023-01-04T00:54:30.046Z,53.53
2023-01-04T00:56:58.349Z,48.50
2023-01-04T00:59:28.456Z,40.88
2023-01-04T01:01:55.551Z,40.92
2023-01-04T01:04:24.218Z,42.88
2023-01-04T01:06:52.342Z,47.72
2023-01-04T01:09:23.194Z,50.60
2023-01-04T01:11:52.189Z,42.60
2023-01-04T01:14:22.545Z,43.83
2023-01-04T01:16:55.994Z,45.03
2023-01-04T01:19:25.350Z,44.35
2023-01-04T01:21:52.653Z,44.65
2023-01-04T01:24:21.406Z,42.95
2023-01-04T01:26:48.916Z,43.10
2023-01-04T01:29:15.924Z,45.33
2023-01-04T01:31:43.070Z,48.83
2023-01-04T01:34:10.240Z,44.95
2023-01-04T01:36:37.617Z,45.78
2023-01-04T01:39:06.088Z,40.40
2023-01-04T01:41:35.090Z,43.67
2023-01-04T01:44:13.207Z,46.00
2023-01-04T01:46:52.748Z,45.38
2023-01-04T01:49:32.649Z,43.45
2023-01-04T01:52:02.989Z,53.97
2023-01-04T01:54:35.390Z,47.53
2023-01-04T01:57:05.788Z,46.28
2023-01-04T01:59:36.496Z,44.38
2023-01-04T02:02:03.707Z,43.75
2023-01-04T02:04:31.476Z,47.53
2023-01-04T02:06:59.846Z,45.80
2023-01-04T02:09:26.853Z,42.33
2023-01-04T02:11:53.817Z,47.40
2023-01-04T02:14:27.502Z,36.90
2023-01-04T02:16:56.538Z,47.88
2023-01-04T02:19:35.725Z,36.30
2023-01-04T02:22:30.809Z,36.28
2023-01-04T02:25:16.817Z,34.65
2023-01-04T02:27:49.638Z,33.67
2023-01-04T02:30:50.292Z,32.10
2023-01-04T02:33:38.796Z,27.95
2023-01-04T02:36:08.890Z,27.77
2023-01-04T02:38:53.180Z,25.35
2023-01-04T02:42:16.324Z,42.47
2023-01-04T02:44:57.501Z,44.45
2023-01-04T02:47:54.149Z,39.80
2023-01-04T02:50:37.126Z,45.05
2023-01-04T02:53:13.180Z,43.45
2023-01-04T02:56:19.806Z,44.20
2023-01-04T02:58:58.384Z,43.53
2023-01-04T03:02:09.256Z,43.08
2023-01-04T03:05:00.752Z,42.80
2023-01-04T03:07:46.732Z,40.50
2023-01-04T03:10:31.572Z,38.67
2023-01-04T03:13:11.108Z,42.60
2023-01-04T03:15:41.335Z,40.92
2023-01-04T03:18:20.344Z,38.42
2023-01-04T03:20:49.286Z,42.55
2023-01-04T03:23:37.878Z,39.88
2023-01-04T03:26:37.755Z,39.95
2023-01-04T03:29:50.863Z,39.05
2023-01-04T03:32:46.488Z,43.95
2023-01-04T03:35:23.014Z,38.60
2023-01-04T03:38:16.541Z,38.22
2023-01-04T03:41:15.720Z,39.40
2023-01-04T03:44:17.706Z,39.10
2023-01-04T03:47:08.428Z,40.17
2023-01-04T03:49:47.687Z,39.30
2023-01-04T03:52:16.714Z,37.50
2023-01-04T03:54:47.768Z,36.83
2023-01-04T03:57:16.035Z,40.80
2023-01-04T03:59:49.693Z,36.42
2023-01-04T04:02:22.884Z,36.38
2023-01-04T04:05:08.864Z,37.28
2023-01-04T04:07:54.294Z,37.90
2023-01-04T04:10:21.609Z,37.83
2023-01-04T04:12:48.992Z,33.10
2023-01-04T04:15:19.738Z,33.35
2023-01-04T04:17:47.069Z,27.63
2023-01-04T04:20:14.197Z,24.88
2023-01-04T04:22:41.345Z,29.38
2023-01-04T04:25:08.811Z,31.30
2023-01-04T04:27:35.891Z,31.38
2023-01-04T04:30:05.326Z,34.20
2023-01-04T04:32:32.806Z,32.72
2023-01-04T04:34:59.808Z,31.38
2023-01-04T04:37:28.681Z,38.00
2023-01-04T04:39:55.710Z,37.58
2023-01-04T04:42:22.716Z,35.83
2023-01-04T04:44:49.766Z,38.58
2023-01-04T04:47:16.937Z,40.28
2023-01-04T04:49:44.028Z,36.50
2023-01-04T04:52:11.175Z,34.90
2023-01-04T04:54:38.382Z,35.95
2023-01-04T04:57:05.517Z,36.08
2023-01-04T04:59:32.730Z,38.55
2023-01-04T05:01:59.938Z,39.28
2023-01-04T05:04:27.084Z,35.47
2023-01-04T05:06:54.168Z,38.50
2023-01-04T05:09:21.221Z,38.38
2023-01-04T05:12:06.699Z,35.72
2023-01-04T05:14:33.690Z,34.28
2023-01-04T05:17:00.845Z,35.83
2023-01-04T05:19:28.022Z,37.90
2023-01-04T05:21:55.072Z,38.90
2023-01-04T05:24:22.268Z,39.08
2023-01-04T05:26:49.418Z,38.42
2023-01-04T05:29:38.360Z,37.53
2023-01-04T05:32:05.824Z,35.38
2023-01-04T05:34:35.800Z,37.13
2023-01-04T05:37:03.202Z,35.35
2023-01-04T05:39:31.162Z,34.72
2023-01-04T05:42:16.747Z,37.67
2023-01-04T05:44:43.779Z,35.25
2023-01-04T05:47:15.328Z,39.00
2023-01-04T05:49:43.229Z,38.58
2023-01-04T05:52:11.369Z,34.13
2023-01-04T05:54:38.935Z,33.20
2023-01-04T05:57:11.263Z,43.17
2023-01-04T05:59:42.215Z,35.65
2023-01-04T06:02:19.246Z,32.90
2023-01-04T06:04:48.441Z,31.52
2023-01-04T06:07:18.087Z,33.73
2023-01-04T06:09:45.716Z,35.25
2023-01-04T06:12:14.503Z,27.15
2023-01-04T06:14:42.132Z,29.35
2023-01-04T06:17:10.230Z,35.95
2023-01-04T06:19:39.813Z,68.55
2023-01-04T06:22:08.751Z,56.65
2023-01-04T06:24:37.304Z,47.97
2023-01-04T06:27:04.788Z,36.50
2023-01-04T06:29:37.150Z,35.67
2023-01-04T06:32:05.285Z,39.63
2023-01-04T06:34:33.512Z,37.15
2023-01-04T06:37:01.001Z,37.88
2023-01-04T06:39:28.690Z,36.03
2023-01-04T06:42:05.764Z,34.80
2023-01-04T06:44:33.555Z,31.67
2023-01-04T06:49:44.228Z,28.88
2023-01-04T06:52:14.321Z,24.42
2023-01-04T06:54:41.708Z,27.20
2023-01-04T06:57:08.669Z,28.45
2023-01-04T06:59:36.892Z,28.17
2023-01-04T07:02:06.676Z,29.30
2023-01-04T07:04:36.598Z,27.30
2023-01-04T07:07:06.310Z,32.25
2023-01-04T07:09:36.047Z,35.03
2023-01-04T07:12:03.257Z,30.65
2023-01-04T07:14:37.118Z,31.33
2023-01-04T07:17:04.561Z,33.17
2023-01-04T07:19:34.838Z,31.38
2023-01-04T07:22:07.902Z,28.02
2023-01-04T07:24:43.677Z,28.02
2023-01-04T07:27:15.112Z,27.75
2023-01-04T07:29:54.375Z,28.95
2023-01-04T07:35:29.417Z,28.90
2023-01-04T07:38:04.260Z,26.05
2023-01-04T07:40:56.258Z,23.55
2023-01-04T07:43:30.449Z,29.27
2023-01-04T07:46:06.075Z,26.15
2023-01-04T07:48:37.461Z,31.80
2023-01-04T07:51:13.051Z,30.85
2023-01-04T07:53:48.599Z,32.30
2023-01-04T07:56:33.249Z,28.88
2023-01-04T07:59:08.093Z,28.67
2023-01-04T08:01:40.052Z,26.35
2023-01-04T08:13:15.481Z,28.95
2023-01-04T08:15:53.520Z,25.48
2023-01-04T08:21:29.435Z,25.70
2023-01-04T08:23:59.852Z,23.60
2023-01-04T08:26:35.712Z,23.67
2023-01-04T08:29:18.879Z,31.65
2023-01-04T08:31:48.277Z,27.23
2023-01-04T08:34:20.576Z,34.33
2023-01-04T08:37:14.569Z,24.52
2023-01-04T08:39:53.400Z,43.85
2023-01-04T08:42:31.238Z,30.83
2023-01-04T08:45:06.157Z,24.88
2023-01-04T08:47:38.425Z,33.03
2023-01-04T08:50:10.434Z,37.17
2023-01-04T08:52:38.215Z,61.80
2023-01-04T08:55:12.267Z,73.85
2023-01-04T08:57:39.743Z,29.30
2023-01-04T09:00:07.590Z,45.58
2023-01-04T09:02:34.995Z,28.73
2023-01-04T09:05:09.264Z,25.55
2023-01-04T09:07:37.785Z,24.35
2023-01-04T09:10:06.004Z,24.80
2023-01-04T09:12:38.591Z,24.35
2023-01-04T09:15:07.863Z,26.02
2023-01-04T09:17:42.513Z,24.55
2023-01-04T09:20:22.731Z,25.02
2023-01-04T09:22:49.828Z,25.55
2023-01-04T09:25:16.849Z,22.70
2023-01-04T09:27:44.839Z,25.45
2023-01-04T09:30:12.464Z,25.30
2023-01-04T09:32:39.388Z,25.17
2023-01-04T09:35:06.543Z,22.80
2023-01-04T09:37:34.979Z,27.17
2023-01-04T09:40:01.932Z,28.00
2023-01-04T09:42:41.128Z,28.10
2023-01-04T09:45:24.211Z,23.45
2023-01-04T09:47:55.459Z,29.00
2023-01-04T09:50:32.310Z,24.13
2023-01-04T09:53:25.351Z,24.60
2023-01-04T09:55:56.003Z,24.27
2023-01-04T09:58:42.223Z,25.88
2023-01-04T10:01:24.707Z,27.13
2023-01-04T10:04:27.040Z,28.42
2023-01-04T10:09:27.272Z,25.50
2023-01-04T10:12:00.185Z,25.55
2023-01-04T10:21:38.826Z,27.77
2023-01-04T10:24:24.667Z,29.45
2023-01-04T10:27:00.031Z,28.33
2023-01-04T10:29:56.431Z,25.90
2023-01-04T10:32:50.174Z,29.20
2023-01-04T10:35:25.984Z,32.70
2023-01-04T10:38:01.566Z,32.97
2023-01-04T10:40:31.807Z,28.73
2023-01-04T10:43:17.354Z,29.67
2023-01-04T10:46:07.777Z,30.38
2023-01-04T10:48:51.089Z,29.70
2023-01-04T10:51:29.405Z,28.60
2023-01-04T10:54:07.080Z,28.25
2023-01-04T10:56:39.253Z,33.40
2023-01-04T10:59:22.836Z,32.20
2023-01-04T11:05:22.224Z,29.40
2023-01-04T11:17:47.236Z,29.70
2023-01-04T11:31:35.680Z,29.00
2023-01-04T11:41:27.308Z,28.63
2023-01-04T11:48:14.450Z,36.00
2023-01-04T11:51:54.002Z,33.05
2023-01-04T11:54:29.976Z,32.47
2023-01-04T11:57:32.792Z,38.42
2023-01-04T12:00:40.341Z,38.75
2023-01-04T12:03:54.201Z,39.53
2023-01-04T12:17:43.994Z,50.25
2023-01-04T12:24:16.694Z,46.33
2023-01-04T12:27:04.928Z,50.05
2023-01-04T12:29:44.412Z,46.90
2023-01-04T12:32:11.612Z,47.53
2023-01-04T12:35:08.143Z,50.35
2023-01-04T12:40:48.879Z,47.67
2023-01-04T12:43:46.743Z,51.33
2023-01-04T12:46:51.080Z,46.33
2023-01-04T12:49:30.433Z,47.17
2023-01-04T12:55:04.692Z,47.42
2023-01-04T12:57:37.905Z,51.10
2023-01-04T13:03:25.332Z,39.97
2023-01-04T13:06:24.038Z,27.90
2023-01-04T13:08:54.088Z,19.10
2023-01-04T13:11:41.437Z,15.55
2023-01-04T13:14:34.825Z,15.73
2023-01-04T13:17:23.113Z,16.23
2023-01-04T13:19:53.873Z,20.45
2023-01-04T13:22:28.552Z,23.10
2023-01-04T13:24:58.923Z,25.20
2023-01-04T13:27:27.487Z,26.98
2023-01-04T13:29:57.523Z,23.85
2023-01-04T13:32:31.043Z,26.15
2023-01-04T13:35:14.042Z,24.38
2023-01-04T13:37:48.577Z,23.20
2023-01-04T13:40:50.280Z,23.95
2023-01-04T13:43:41.350Z,24.75
2023-01-04T13:46:23.317Z,26.27
2023-01-04T13:51:36.904Z,23.17
2023-01-04T13:54:28.916Z,25.23
2023-01-04T13:57:19.015Z,29.25
2023-01-04T13:59:52.048Z,28.25
2023-01-04T14:02:23.605Z,29.45
2023-01-04T14:05:01.530Z,27.63
2023-01-04T14:07:28.610Z,27.55
2023-01-04T14:09:59.863Z,26.42
2023-01-04T14:12:29.231Z,25.42
2023-01-04T14:15:14.087Z,27.90
2023-01-04T14:17:51.928Z,25.52
2023-01-04T14:20:24.693Z,24.65
2023-01-04T14:22:59.598Z,26.35
2023-01-04T14:25:37.155Z,26.45
2023-01-04T14:28:21.115Z,28.88
2023-01-04T14:31:19.839Z,27.75
2023-01-04T14:33:50.290Z,25.83
2023-01-04T14:36:22.730Z,28.67
2023-01-04T14:39:08.195Z,31.20
2023-01-04T14:41:41.595Z,29.08
2023-01-04T14:44:20.982Z,27.50
2023-01-04T14:46:54.812Z,28.15
2023-01-04T14:49:22.534Z,26.65
2023-01-04T14:51:54.059Z,28.67
2023-01-04T14:54:25.298Z,25.73
2023-01-04T14:56:58.006Z,27.55
2023-01-04T14:59:27.272Z,26.40
2023-01-04T15:01:58.775Z,29.30
2023-01-04T15:04:27.477Z,28.60
2023-01-04T15:07:00.343Z,29.88
2023-01-04T15:09:29.007Z,31.63
2023-01-04T15:11:57.732Z,30.75
2023-01-04T15:14:25.270Z,30.90
2023-01-04T15:16:53.584Z,42.10
2023-01-04T15:19:20.799Z,35.92
2023-01-04T15:21:49.762Z,36.40
2023-01-04T15:24:18.682Z,38.95
2023-01-04T15:26:48.288Z,36.30
2023-01-04T15:29:15.667Z,33.22
2023-01-04T15:31:45.869Z,39.63
2023-01-04T15:34:23.131Z,40.80
2023-01-04T15:36:55.202Z,39.33
2023-01-04T15:39:23.791Z,41.28
2023-01-04T15:44:46.636Z,39.53
2023-01-04T15:48:25.024Z,40.53
2023-01-04T15:50:53.446Z,39.72
2023-01-04T15:53:22.259Z,41.67
2023-01-04T15:55:52.562Z,42.72
2023-01-04T15:58:19.750Z,47.35
2023-01-04T16:01:06.123Z,45.35
2023-01-04T16:03:39.869Z,44.08
2023-01-04T16:06:15.062Z,41.90
2023-01-04T16:08:49.037Z,45.55
2023-01-04T16:11:24.826Z,44.20
2023-01-04T16:13:58.720Z,48.28
2023-01-04T16:16:28.437Z,47.97
2023-01-04T16:19:21.589Z,47.42
2023-01-04T16:21:50.417Z,48.63
2023-01-04T16:28:01.994Z,50.35
2023-01-04T16:30:38.540Z,45.58
2023-01-04T16:33:07.735Z,46.03
2023-01-04T16:35:34.657Z,46.28
2023-01-04T16:38:31.665Z,50.72
2023-01-04T16:41:03.192Z,48.45
2023-01-04T16:43:30.880Z,52.90
2023-01-04T16:46:22.639Z,45.00
2023-01-04T16:48:52.815Z,45.75
2023-01-04T16:51:20.758Z,50.78
2023-01-04T16:53:47.967Z,47.60
2023-01-04T16:56:21.942Z,49.13
2023-01-04T16:58:49.555Z,46.80
2023-01-04T17:01:22.860Z,50.17
2023-01-04T17:03:51.554Z,45.20
2023-01-04T17:06:22.596Z,49.35
2023-01-04T17:08:51.382Z,47.38
2023-01-04T17:14:12.104Z,46.25
2023-01-04T17:16:39.153Z,42.83
2023-01-04T17:19:06.126Z,41.75
2023-01-04T17:21:34.609Z,39.95
2023-01-04T17:24:02.065Z,44.70
2023-01-04T17:26:31.746Z,44.03
2023-01-04T17:29:00.738Z,45.17
2023-01-04T17:31:34.665Z,45.88
2023-01-04T17:34:02.630Z,43.60
2023-01-04T17:36:29.775Z,42.83
2023-01-04T17:38:59.927Z,44.00
2023-01-04T17:41:29.512Z,41.08
2023-01-04T17:44:02.325Z,43.03
2023-01-04T17:46:33.255Z,39.65
2023-01-04T17:49:23.011Z,40.80
2023-01-04T17:51:53.431Z,42.67
2023-01-04T17:54:21.437Z,36.53
2023-01-04T17:56:49.475Z,42.83
2023-01-04T17:59:16.489Z,39.60
2023-01-04T18:01:43.856Z,40.08
2023-01-04T18:04:11.421Z,40.03
2023-01-04T18:06:39.552Z,42.58
2023-01-04T18:09:09.410Z,42.20
2023-01-04T18:11:36.687Z,42.72
2023-01-04T18:14:09.587Z,43.75
2023-01-04T18:16:56.967Z,48.17
2023-01-04T18:19:27.796Z,44.97
2023-01-04T18:21:57.792Z,45.50
2023-01-04T18:24:39.262Z,42.97
2023-01-04T18:27:25.598Z,43.70
2023-01-04T18:29:59.285Z,44.97
2023-01-04T18:32:47.829Z,48.20
2023-01-04T18:35:15.340Z,49.42
2023-01-04T18:37:47.220Z,49.13
2023-01-04T18:42:48.186Z,51.38
2023-01-04T18:45:19.211Z,50.80
2023-01-04T18:47:47.811Z,50.35
2023-01-04T18:50:16.478Z,52.88
2023-01-04T18:52:44.137Z,54.67
2023-01-04T18:55:11.511Z,53.53
2023-01-04T18:57:45.808Z,55.08
2023-01-04T19:00:32.512Z,55.30
2023-01-04T19:03:04.810Z,56.67
2023-01-04T19:05:46.528Z,57.17
2023-01-04T19:08:14.665Z,55.90
2023-01-04T19:10:45.795Z,57.33
2023-01-04T19:13:13.169Z,59.97
2023-01-04T19:15:47.570Z,60.80
2023-01-04T19:18:15.219Z,63.08
2023-01-04T19:20:42.375Z,59.30
2023-01-04T19:23:09.416Z,61.88
2023-01-04T19:25:38.955Z,59.17
2023-01-04T19:28:06.927Z,59.47
2023-01-04T19:30:40.962Z,62.58
2023-01-04T19:33:11.540Z,61.28
2023-01-04T19:35:43.340Z,61.75
2023-01-04T19:38:11.499Z,65.25
2023-01-04T19:40:38.608Z,66.72
2023-01-04T19:43:06.411Z,58.35
2023-01-04T19:45:39.418Z,61.40
2023-01-04T19:48:06.680Z,65.50
2023-01-04T19:50:33.672Z,64.60
2023-01-04T19:53:01.198Z,59.83
2023-01-04T19:55:29.898Z,65.60
2023-01-04T19:57:57.240Z,62.38
2023-01-04T20:00:35.272Z,66.53
2023-01-04T20:03:02.572Z,66.60
2023-01-04T20:05:29.698Z,68.15
2023-01-04T20:07:56.656Z,62.60
2023-01-04T20:10:23.634Z,62.63
2023-01-04T20:12:50.959Z,61.33
2023-01-04T20:15:20.326Z,64.97
2023-01-04T20:17:48.012Z,61.53
2023-01-04T20:20:15.107Z,63.13
2023-01-04T20:22:41.996Z,61.35
2023-01-04T20:25:12.138Z,59.75
2023-01-04T20:27:46.709Z,59.72
2023-01-04T20:30:22.385Z,64.35
2023-01-04T20:32:51.202Z,63.65
2023-01-04T20:35:21.314Z,63.67
2023-01-04T20:37:49.216Z,70.18
2023-01-04T20:40:19.397Z,61.30
2023-01-04T20:43:04.765Z,64.25
2023-01-04T20:45:33.873Z,63.45
2023-01-04T20:48:01.206Z,63.78
2023-01-04T20:50:28.211Z,65.78
2023-01-04T20:52:55.273Z,65.90
2023-01-04T20:55:29.375Z,68.28
2023-01-04T20:57:56.471Z,62.78
2023-01-04T21:00:23.665Z,60.90
2023-01-04T21:02:58.401Z,59.47
2023-01-04T21:05:25.447Z,57.58
2023-01-04T21:07:52.489Z,57.97
2023-01-04T21:10:22.585Z,59.13
2023-01-04T21:12:49.620Z,59.33
2023-01-04T21:15:18.912Z,59.75
2023-01-04T21:17:47.728Z,57.05
2023-01-04T21:20:14.931Z,62.15
2023-01-04T21:22:42.065Z,59.53
2023-01-04T21:25:09.361Z,64.85
2023-01-04T21:27:38.337Z,65.15
2023-01-04T21:30:09.449Z,66.60
2023-01-04T21:32:36.656Z,54.70
2023-01-04T21:35:05.646Z,56.25
2023-01-04T21:37:38.543Z,57.30
2023-01-04T21:40:06.369Z,57.03
2023-01-04T21:42:36.589Z,59.63
2023-01-04T21:45:06.771Z,57.00
2023-01-04T21:47:41.832Z,56.05
2023-01-04T21:50:17.091Z,58.90
2023-01-04T21:52:49.198Z,58.10
2023-01-04T21:57:49.682Z,53.30
2023-01-04T22:00:26.233Z,52.03
2023-01-04T22:03:00.659Z,66.78
2023-01-04T22:05:27.705Z,53.00
2023-01-04T22:08:00.140Z,56.55
2023-01-04T22:10:29.766Z,56.97
2023-01-04T22:13:01.215Z,49.60
2023-01-04T22:15:33.068Z,51.50
2023-01-04T22:18:03.326Z,68.03
2023-01-04T22:20:34.767Z,63.67
2023-01-04T22:23:02.547Z,52.70
2023-01-04T22:25:40.188Z,46.22
2023-01-04T22:28:10.910Z,37.90
2023-01-04T22:30:44.166Z,37.83
2023-01-04T22:33:11.176Z,37.85
2023-01-04T22:35:40.143Z,36.83
2023-01-04T22:38:07.736Z,32.97
2023-01-04T22:40:38.171Z,31.65
2023-01-04T22:43:08.119Z,34.15
2023-01-04T22:45:35.386Z,27.63
2023-01-04T22:48:02.647Z,30.25
2023-01-04T22:50:29.818Z,33.03
2023-01-04T22:52:56.811Z,29.50
2023-01-04T22:55:28.732Z,30.08
2023-01-04T22:58:02.363Z,30.27
2023-01-04T23:00:30.551Z,26.35
2023-01-04T23:02:57.727Z,30.05
2023-01-04T23:05:24.648Z,27.25
2023-01-04T23:07:51.629Z,26.35
2023-01-04T23:10:18.699Z,23.90
2023-01-04T23:12:45.707Z,31.02
2023-01-04T23:15:12.914Z,29.77
2023-01-04T23:17:39.879Z,47.08
2023-01-04T23:20:10.368Z,42.17
2023-01-04T23:22:39.741Z,37.40
2023-01-04T23:25:07.407Z,37.38
2023-01-04T23:27:34.332Z,38.90
2023-01-04T23:30:03.990Z,30.50
2023-01-04T23:32:31.991Z,27.92
2023-01-04T23:34:58.967Z,32.83
2023-01-04T23:37:25.997Z,34.88
2023-01-04T23:39:53.307Z,30.88
2023-01-04T23:42:20.170Z,29.92
2023-01-04T23:44:48.912Z,29.85
2023-01-04T23:47:15.938Z,27.65
2023-01-04T23:49:43.158Z,26.65
2023-01-04T23:52:11.107Z,25.38
2023-01-04T23:54:38.226Z,29.65
2023-01-04T23:57:05.504Z,24.92
2023-01-04T23:59:32.684Z,26.33
